Haddonfield, New Jersey
Current Conditions -  °F | °C
As of 7:54 PM on Saturday 22 Nov 2014 (Local Time) from KVAY Reporting Station
Overcast Overcast  
Wind Chill:   Ceiling: 9500
Heat Index:   Visibility: 10mi
Dew Point: -6°   Wind: 7mph
Humidity: 43%   Direction: 220°SW
Pressure: 30.28"   Gusts: NA
Location:  39.9°N, 75.03°W
Report Text: KVAY 230054Z AUTO 22006KT 10SM SCT070 OVC095 06/M06 A3028 RMK AO2 SLP256 T00611056
Loading
Personal Weather Stations






























Interactive Weather Map New forecast layout! Learn more

10-Day Weather Forecast

Advertisements
Track Severe Weather on mobile